Time;durP1;ratioP1;P1;durP2;ratioP2;P2;SDS_P1;SDS_P2;PMS_P1;PMS_P2;Temp;Humidity;BMP_temperature;BMP_pressure;BME280_temperature;BME280_humidity;BME280_pressure;Samples;Min_cycle;Max_cycle;Signal;HPM_P1;HPM_P2
2023/05/26 00:00:21;;;;;;;15.93;5.45;;;9.30;99.90;;;;;;5056060;28;20222;-61
2023/05/26 00:02:50;;;;;;;18.23;6.05;;;9.20;99.90;;;;;;5055914;28;20206;-61
2023/05/26 00:05:20;;;;;;;20.40;5.45;;;9.20;99.90;;;;;;5053869;28;20417;-61
2023/05/26 00:07:48;;;;;;;18.50;5.22;;;9.20;99.90;;;;;;5054682;28;20197;-61
2023/05/26 00:10:15;;;;;;;24.50;5.60;;;9.20;99.90;;;;;;5053928;28;20229;-61
2023/05/26 00:12:41;;;;;;;25.25;5.50;;;9.20;99.90;;;;;;5053253;28;20201;-61
2023/05/26 00:15:09;;;;;;;22.85;5.30;;;9.10;99.90;;;;;;5052870;28;20202;-59
2023/05/26 00:17:37;;;;;;;24.10;5.32;;;9.10;99.90;;;;;;5052776;28;20241;-60
2023/05/26 00:20:07;;;;;;;15.63;5.28;;;9.00;99.90;;;;;;5053197;28;20567;-61
2023/05/26 00:22:34;;;;;;;10.48;4.10;;;9.00;99.90;;;;;;5052867;28;20204;-61
2023/05/26 00:25:01;;;;;;;16.27;4.63;;;8.90;99.90;;;;;;5052543;28;20197;-60
2023/05/26 00:27:28;;;;;;;16.48;5.13;;;8.90;99.90;;;;;;5055037;28;20198;-62
2023/05/26 00:29:57;;;;;;;21.35;5.78;;;8.90;99.90;;;;;;5056494;28;20590;-62
2023/05/26 00:32:24;;;;;;;21.58;5.60;;;8.80;99.90;;;;;;5056720;28;20309;-61
2023/05/26 00:34:51;;;;;;;13.07;5.05;;;8.80;99.90;;;;;;5057190;28;20201;-61
2023/05/26 00:37:20;;;;;;;24.73;5.10;;;8.80;99.90;;;;;;5057426;28;20236;-60
2023/05/26 00:39:47;;;;;;;19.63;5.05;;;8.80;99.90;;;;;;5056821;28;20671;-60
2023/05/26 00:42:13;;;;;;;21.15;5.65;;;8.70;99.90;;;;;;5056534;28;20444;-61
2023/05/26 00:44:40;;;;;;;28.23;5.82;;;8.70;99.90;;;;;;5057858;28;20231;-62
2023/05/26 00:47:07;;;;;;;18.63;5.80;;;8.70;99.90;;;;;;5057421;28;20204;-61
2023/05/26 00:49:34;;;;;;;16.27;4.97;;;8.70;99.90;;;;;;5057031;28;20201;-61
2023/05/26 00:52:01;;;;;;;22.55;6.20;;;8.60;99.90;;;;;;5057100;28;20206;-61
2023/05/26 00:54:30;;;;;;;24.33;5.75;;;8.60;99.90;;;;;;5056985;28;20570;-59
2023/05/26 00:56:58;;;;;;;21.50;6.70;;;8.60;99.90;;;;;;5056877;28;20228;-60
2023/05/26 00:59:25;;;;;;;19.60;6.18;;;8.60;99.90;;;;;;5055783;28;20831;-61
2023/05/26 01:01:52;;;;;;;22.38;6.30;;;8.60;99.90;;;;;;5056540;28;20420;-61
2023/05/26 01:04:20;;;;;;;21.55;5.53;;;8.50;99.90;;;;;;5056684;28;20204;-62
2023/05/26 01:06:47;;;;;;;16.83;5.47;;;8.50;99.90;;;;;;5056531;28;20198;-60
2023/05/26 01:09:14;;;;;;;20.08;5.78;;;8.40;99.90;;;;;;5056221;28;20689;-62
2023/05/26 01:11:48;;;;;;;22.40;6.30;;;8.40;99.90;;;;;;5054974;28;20417;-60
2023/05/26 01:14:19;;;;;;;18.77;5.88;;;8.40;99.90;;;;;;5055957;28;20193;-61
2023/05/26 01:16:53;;;;;;;28.60;6.30;;;8.40;99.90;;;;;;5056162;28;20643;-63
2023/05/26 01:19:52;;;;;;;20.42;5.53;;;8.30;99.90;;;;;;5055096;28;20935;-61
2023/05/26 01:22:28;;;;;;;29.52;6.55;;;8.30;99.90;;;;;;5057603;28;20198;-60
2023/05/26 01:25:07;;;;;;;20.88;5.60;;;8.30;99.90;;;;;;5058232;28;20419;-61
2023/05/26 01:27:45;;;;;;;26.23;6.20;;;8.20;99.90;;;;;;5054749;28;20415;-62
2023/05/26 01:30:14;;;;;;;21.05;5.40;;;8.20;99.90;;;;;;5054961;28;20505;-59
2023/05/26 01:32:47;;;;;;;23.60;6.80;;;8.20;99.90;;;;;;5056356;28;20580;-61
2023/05/26 01:35:14;;;;;;;21.17;6.50;;;8.20;99.90;;;;;;5056042;28;20182;-61
2023/05/26 01:37:42;;;;;;;20.42;5.47;;;8.10;99.90;;;;;;5056051;28;20222;-61
2023/05/26 01:40:11;;;;;;;23.63;5.80;;;8.10;99.90;;;;;;5055351;28;20226;-60
2023/05/26 01:42:42;;;;;;;23.60;6.68;;;8.10;99.90;;;;;;5055378;28;20625;-60
2023/05/26 01:45:16;;;;;;;23.27;5.25;;;8.00;99.90;;;;;;5055883;28;20247;-60
2023/05/26 01:47:47;;;;;;;24.00;5.85;;;8.00;99.90;;;;;;5056494;28;20395;-60
2023/05/26 01:50:14;;;;;;;16.60;4.35;;;8.00;99.90;;;;;;5055476;28;20228;-60
2023/05/26 01:52:43;;;;;;;21.35;7.30;;;7.90;99.90;;;;;;5054510;28;20850;-59
2023/05/26 01:55:12;;;;;;;27.65;6.70;;;7.90;99.90;;;;;;5054370;28;20894;-61
2023/05/26 01:57:40;;;;;;;23.35;6.40;;;7.90;99.90;;;;;;5054344;28;20866;-60
2023/05/26 02:00:10;;;;;;;23.08;6.18;;;7.90;99.90;;;;;;5054674;28;20409;-60
2023/05/26 02:02:38;;;;;;;25.08;6.70;;;7.90;99.90;;;;;;5055406;28;20198;-60
2023/05/26 02:05:06;;;;;;;16.05;6.15;;;7.90;99.90;;;;;;5055584;28;20202;-62
2023/05/26 02:07:34;;;;;;;20.63;5.28;;;7.80;99.90;;;;;;5055566;28;20680;-61
2023/05/26 02:10:02;;;;;;;20.98;4.97;;;7.80;99.90;;;;;;5055569;28;20222;-60
2023/05/26 02:12:28;;;;;;;16.27;5.85;;;7.80;99.90;;;;;;5055257;28;20214;-60
2023/05/26 02:14:55;;;;;;;15.88;4.90;;;7.70;99.90;;;;;;5055017;28;20205;-60
2023/05/26 02:17:23;;;;;;;13.85;5.40;;;7.70;99.90;;;;;;5055167;28;20229;-60
2023/05/26 02:19:52;;;;;;;18.67;5.30;;;7.70;99.90;;;;;;5054846;28;20698;-60
2023/05/26 02:22:18;;;;;;;23.50;6.07;;;7.70;99.90;;;;;;5054053;28;20467;-60
2023/05/26 02:24:45;;;;;;;27.13;6.45;;;7.60;99.90;;;;;;5053662;28;20787;-61
2023/05/26 02:27:12;;;;;;;26.08;7.60;;;7.60;99.90;;;;;;5053769;28;20416;-60
2023/05/26 02:29:39;;;;;;;22.52;6.75;;;7.60;99.90;;;;;;5053286;28;20423;-61
2023/05/26 02:32:06;;;;;;;23.63;6.43;;;7.60;99.90;;;;;;5054909;28;20228;-60
2023/05/26 02:34:33;;;;;;;22.23;5.80;;;7.60;99.90;;;;;;5054932;28;20202;-63
2023/05/26 02:37:01;;;;;;;25.67;7.00;;;7.60;99.90;;;;;;5053765;28;20429;-61
2023/05/26 02:39:28;;;;;;;20.30;6.05;;;7.60;99.90;;;;;;5054672;28;20197;-61
2023/05/26 02:41:55;;;;;;;16.55;5.30;;;7.50;99.90;;;;;;5054554;28;20803;-61
2023/05/26 02:44:22;;;;;;;25.95;8.00;;;7.50;99.90;;;;;;5053729;28;20413;-61
2023/05/26 02:46:48;;;;;;;25.73;7.32;;;7.50;99.90;;;;;;5057762;28;20409;-61
2023/05/26 02:49:15;;;;;;;24.50;6.32;;;7.50;99.90;;;;;;5056152;28;20206;-60
2023/05/26 02:51:42;;;;;;;19.38;5.43;;;7.50;99.90;;;;;;5053210;28;20222;-61
2023/05/26 02:54:10;;;;;;;24.60;5.30;;;7.50;99.90;;;;;;5058189;28;20206;-59
2023/05/26 02:56:37;;;;;;;23.45;6.30;;;7.50;99.90;;;;;;5059155;28;20237;-61
2023/05/26 02:59:04;;;;;;;26.08;6.55;;;7.40;99.90;;;;;;5054129;28;20211;-60
2023/05/26 03:01:31;;;;;;;18.52;6.43;;;7.40;99.90;;;;;;5054066;28;20226;-60
2023/05/26 03:03:58;;;;;;;19.52;5.30;;;7.40;99.90;;;;;;5054062;28;20284;-60
2023/05/26 03:06:25;;;;;;;21.30;6.00;;;7.30;99.90;;;;;;5053835;28;20201;-60
2023/05/26 03:08:52;;;;;;;26.23;6.18;;;7.30;99.90;;;;;;5054146;28;20194;-59
2023/05/26 03:11:21;;;;;;;16.88;5.57;;;7.30;99.90;;;;;;5053829;28;20241;-60
2023/05/26 03:13:48;;;;;;;14.40;5.47;;;7.30;99.90;;;;;;5053918;28;20645;-60
2023/05/26 03:16:15;;;;;;;18.55;6.20;;;7.30;99.90;;;;;;5054236;28;20259;-59
2023/05/26 03:18:42;;;;;;;19.80;5.80;;;7.30;99.90;;;;;;5054171;28;20226;-60
2023/05/26 03:21:09;;;;;;;26.50;5.05;;;7.30;99.90;;;;;;5055338;28;20232;-60
2023/05/26 03:23:36;;;;;;;17.08;4.93;;;7.30;99.90;;;;;;5054805;28;20202;-60
2023/05/26 03:26:03;;;;;;;23.00;5.43;;;7.30;99.90;;;;;;5054889;28;20208;-61
2023/05/26 03:28:31;;;;;;;20.63;6.57;;;7.30;99.90;;;;;;5054662;28;20194;-58
2023/05/26 03:30:58;;;;;;;22.05;5.65;;;7.30;99.90;;;;;;5054830;28;20225;-60
2023/05/26 03:33:25;;;;;;;13.27;5.40;;;7.30;99.90;;;;;;5054975;28;20228;-60
2023/05/26 03:35:52;;;;;;;23.30;5.78;;;7.30;99.90;;;;;;5054771;28;20210;-60
2023/05/26 03:38:19;;;;;;;15.27;5.93;;;7.30;99.90;;;;;;5054353;28;20695;-60
2023/05/26 03:40:45;;;;;;;18.90;6.55;;;7.40;99.90;;;;;;5053596;28;20308;-60
2023/05/26 03:43:12;;;;;;;22.02;5.68;;;7.40;99.90;;;;;;5054466;28;20202;-60
2023/05/26 03:45:40;;;;;;;23.67;6.65;;;7.40;99.90;;;;;;5054503;28;20204;-60
2023/05/26 03:48:08;;;;;;;15.40;5.15;;;7.40;99.90;;;;;;5055605;28;20547;-60
2023/05/26 03:50:35;;;;;;;18.48;4.82;;;7.50;99.90;;;;;;5054547;28;20599;-60
2023/05/26 03:53:02;;;;;;;14.30;5.95;;;7.50;99.90;;;;;;5054924;28;20213;-60
2023/05/26 03:55:29;;;;;;;13.10;7.80;;;7.60;99.90;;;;;;5054026;28;20618;-60
2023/05/26 03:57:56;;;;;;;21.38;6.57;;;7.60;99.90;;;;;;5054957;28;20240;-60
2023/05/26 04:00:23;;;;;;;16.65;5.97;;;7.70;99.90;;;;;;5054313;28;20230;-60
2023/05/26 04:02:51;;;;;;;17.73;6.68;;;7.70;99.90;;;;;;5054577;28;20212;-60
2023/05/26 04:05:18;;;;;;;21.77;5.75;;;7.70;99.90;;;;;;5055076;28;20205;-60
2023/05/26 04:07:46;;;;;;;25.05;6.35;;;7.70;99.90;;;;;;5055331;28;20569;-61
2023/05/26 04:11:46;;;;;;;22.90;4.93;;;7.80;99.90;;;;;;5095782;28;20607;-63
2023/05/26 04:14:12;;;;;;;16.65;5.43;;;7.80;99.90;;;;;;5096528;28;20200;-62
2023/05/26 04:16:39;;;;;;;18.15;5.78;;;7.90;99.90;;;;;;5095506;28;20211;-62
2023/05/26 04:19:06;;;;;;;21.10;5.38;;;7.90;99.90;;;;;;5095405;28;20200;-62
2023/05/26 04:21:33;;;;;;;28.60;6.30;;;8.00;99.90;;;;;;5094049;28;20221;-62
2023/05/26 04:24:00;;;;;;;12.00;4.82;;;8.10;99.90;;;;;;5094811;28;20204;-62
2023/05/26 04:26:28;;;;;;;24.15;6.80;;;8.20;99.90;;;;;;5097046;28;20223;-62
2023/05/26 04:28:57;;;;;;;21.50;5.82;;;8.20;99.90;;;;;;5095644;28;20201;-63
2023/05/26 04:31:24;;;;;;;20.95;5.30;;;8.30;99.90;;;;;;5094697;28;20349;-63
2023/05/26 04:33:52;;;;;;;17.73;6.10;;;8.40;99.90;;;;;;5093767;28;20227;-62
2023/05/26 04:36:19;;;;;;;29.23;6.38;;;8.50;99.90;;;;;;5099222;28;20258;-63
2023/05/26 04:38:47;;;;;;;22.08;6.75;;;8.60;99.90;;;;;;5099623;28;20201;-62
2023/05/26 04:41:15;;;;;;;16.88;5.70;;;8.60;99.90;;;;;;5098333;28;20216;-60
2023/05/26 04:43:43;;;;;;;15.20;5.55;;;8.70;99.90;;;;;;5105033;28;20696;-61
2023/05/26 04:46:11;;;;;;;18.45;5.35;;;8.90;99.90;;;;;;5101002;28;20254;-63
2023/05/26 04:48:38;;;;;;;19.52;5.07;;;8.90;99.90;;;;;;5096774;28;20204;-61
2023/05/26 04:51:07;;;;;;;15.48;5.20;;;9.00;99.90;;;;;;5090821;28;20220;-62
2023/05/26 04:53:33;;;;;;;22.58;6.30;;;9.10;99.90;;;;;;5090487;28;20678;-62
2023/05/26 04:56:02;;;;;;;20.07;6.17;;;9.30;99.90;;;;;;5090337;28;20678;-61
2023/05/26 04:58:29;;;;;;;17.73;5.63;;;9.50;99.90;;;;;;5089995;28;20924;-62
2023/05/26 05:00:56;;;;;;;18.70;6.23;;;9.70;99.90;;;;;;5090141;28;20455;-61
2023/05/26 05:03:25;;;;;;;12.30;4.67;;;9.80;99.90;;;;;;5091208;28;20446;-62
2023/05/26 05:05:52;;;;;;;12.87;4.47;;;9.90;99.90;;;;;;5090126;28;20442;-62
2023/05/26 05:08:19;;;;;;;19.73;5.60;;;10.00;99.90;;;;;;5089651;28;20456;-62
2023/05/26 05:10:46;;;;;;;16.90;5.43;;;10.00;99.90;;;;;;5089881;28;20517;-62
2023/05/26 05:13:13;;;;;;;16.40;4.80;;;10.10;99.90;;;;;;5089801;28;20443;-62
2023/05/26 05:15:39;;;;;;;16.73;4.93;;;10.20;99.90;;;;;;5089828;28;20447;-62
2023/05/26 05:18:06;;;;;;;14.47;4.50;;;10.40;99.90;;;;;;5089509;28;20447;-63
2023/05/26 05:20:35;;;;;;;11.33;4.70;;;10.50;99.90;;;;;;5089461;28;20556;-63
2023/05/26 05:23:02;;;;;;;21.90;5.93;;;10.50;99.90;;;;;;5078519;28;20530;-63
2023/05/26 05:25:29;;;;;;;17.70;5.40;;;10.70;99.90;;;;;;5078208;28;20497;-62
2023/05/26 05:27:55;;;;;;;19.70;5.50;;;10.80;99.90;;;;;;5077795;28;20493;-64
2023/05/26 05:30:22;;;;;;;10.43;5.00;;;10.80;99.90;;;;;;5077234;28;20903;-61
2023/05/26 05:32:49;;;;;;;15.63;5.73;;;10.80;99.90;;;;;;5080449;28;20443;-63
2023/05/26 05:35:16;;;;;;;15.63;4.83;;;10.80;99.90;;;;;;5090358;22;20495;-62
2023/05/26 05:37:44;;;;;;;16.47;5.10;;;10.90;99.90;;;;;;5036051;28;20952;-63
2023/05/26 05:40:12;;;;;;;16.20;4.50;;;11.00;99.90;;;;;;5036017;28;20440;-63
2023/05/26 05:42:39;;;;;;;16.63;4.53;;;11.10;99.90;;;;;;5035660;28;20445;-64
2023/05/26 05:45:07;;;;;;;17.73;4.83;;;11.20;99.90;;;;;;5034908;28;20998;-64
2023/05/26 05:47:33;;;;;;;19.63;5.30;;;11.40;99.90;;;;;;5035263;28;20459;-64
2023/05/26 05:50:00;;;;;;;14.73;5.10;;;11.40;99.90;;;;;;5035843;28;20441;-63
2023/05/26 05:52:27;;;;;;;15.77;5.43;;;11.40;99.90;;;;;;5035116;28;20452;-63
2023/05/26 05:54:55;;;;;;;20.73;5.20;;;11.40;99.90;;;;;;5035390;28;20851;-66
2023/05/26 05:57:22;;;;;;;20.10;4.97;;;11.50;99.90;;;;;;5035226;28;20993;-64
2023/05/26 05:59:48;;;;;;;15.73;4.63;;;11.60;99.90;;;;;;5035216;28;20523;-64
2023/05/26 06:02:15;;;;;;;14.63;5.27;;;11.60;99.90;;;;;;5035193;28;20804;-63
2023/05/26 06:04:42;;;;;;;18.20;4.90;;;11.60;99.90;;;;;;5035144;28;20500;-63
2023/05/26 06:07:09;;;;;;;19.40;4.67;;;11.50;99.70;;;;;;5035721;28;20472;-64
2023/05/26 06:09:36;;;;;;;20.57;4.33;;;11.40;99.70;;;;;;5034979;28;20951;-63
2023/05/26 06:12:04;;;;;;;15.13;4.80;;;11.40;99.80;;;;;;5034865;28;20488;-65
2023/05/26 06:14:31;;;;;;;16.00;4.73;;;11.40;99.80;;;;;;5034680;28;20831;-63
2023/05/26 06:16:58;;;;;;;13.57;4.60;;;11.50;99.70;;;;;;5034929;28;20445;-64
2023/05/26 06:19:25;;;;;;;14.50;4.93;;;11.60;98.80;;;;;;5035081;28;20452;-65
2023/05/26 06:21:51;;;;;;;10.47;4.60;;;11.70;98.20;;;;;;5035330;28;20437;-64
2023/05/26 06:24:18;;;;;;;11.80;4.50;;;11.70;97.50;;;;;;5035132;28;20492;-64
2023/05/26 06:26:45;;;;;;;14.40;4.47;;;11.70;97.00;;;;;;5035571;28;20449;-65
2023/05/26 06:29:13;;;;;;;16.00;4.37;;;11.80;96.70;;;;;;5034822;28;20456;-63
2023/05/26 06:31:40;;;;;;;19.00;5.00;;;11.80;96.00;;;;;;5034679;28;20479;-63
2023/05/26 06:34:07;;;;;;;17.50;4.10;;;11.70;95.20;;;;;;5033450;28;20455;-63
2023/05/26 06:36:33;;;;;;;14.53;5.40;;;11.60;95.20;;;;;;5034609;28;20801;-63
2023/05/26 06:39:00;;;;;;;17.37;4.97;;;11.60;95.40;;;;;;5034863;28;20445;-63
2023/05/26 06:41:27;;;;;;;19.23;4.87;;;11.60;94.90;;;;;;5034897;28;20451;-64
2023/05/26 06:43:55;;;;;;;25.10;5.17;;;11.60;94.60;;;;;;5036013;28;20536;-65
2023/05/26 06:46:23;;;;;;;12.33;3.87;;;11.50;94.40;;;;;;5035376;28;20445;-63
2023/05/26 06:48:50;;;;;;;14.43;4.50;;;11.50;94.30;;;;;;5035755;28;20532;-64
2023/05/26 06:51:17;;;;;;;15.47;4.03;;;11.40;94.40;;;;;;5034673;28;20931;-65
2023/05/26 06:53:43;;;;;;;18.03;5.10;;;11.40;94.50;;;;;;5034642;28;20456;-63
2023/05/26 06:56:10;;;;;;;11.37;4.53;;;11.50;94.40;;;;;;5034188;28;20469;-63
2023/05/26 06:58:37;;;;;;;15.43;4.57;;;11.60;94.30;;;;;;5034451;28;20449;-64
2023/05/26 07:01:05;;;;;;;18.97;4.43;;;11.70;94.30;;;;;;5034319;28;20454;-65
2023/05/26 07:03:33;;;;;;;15.57;4.97;;;11.80;93.80;;;;;;5034016;28;20880;-64
2023/05/26 07:06:00;;;;;;;19.07;5.07;;;12.00;93.30;;;;;;5033974;28;20983;-65
2023/05/26 07:08:28;;;;;;;11.50;4.40;;;12.10;92.60;;;;;;5034066;28;20445;-63
2023/05/26 07:10:55;;;;;;;14.40;4.87;;;12.20;92.00;;;;;;5034279;28;20472;-62
2023/05/26 07:13:22;;;;;;;21.97;5.33;;;12.20;91.20;;;;;;5034263;28;20456;-63
2023/05/26 07:15:48;;;;;;;13.93;4.27;;;12.20;91.10;;;;;;5033388;28;20469;-63
2023/05/26 07:18:15;;;;;;;16.80;4.63;;;12.20;90.90;;;;;;5033694;28;20441;-63
2023/05/26 07:20:43;;;;;;;11.97;4.23;;;12.30;90.80;;;;;;5034532;28;20455;-63
2023/05/26 07:23:10;;;;;;;21.07;4.70;;;12.30;90.50;;;;;;5033772;28;20505;-65
2023/05/26 07:25:37;;;;;;;15.63;5.73;;;12.40;90.10;;;;;;5034294;28;20469;-63
2023/05/26 07:28:04;;;;;;;12.93;3.80;;;12.50;89.00;;;;;;5034956;28;20807;-63
2023/05/26 07:30:31;;;;;;;18.50;4.97;;;12.60;88.00;;;;;;5033938;28;20531;-63
2023/05/26 07:32:58;;;;;;;19.50;4.03;;;12.70;87.00;;;;;;5034875;28;20449;-62
2023/05/26 07:35:24;;;;;;;18.23;4.30;;;12.80;85.10;;;;;;5033540;28;20481;-64
2023/05/26 07:37:53;;;;;;;9.20;3.60;;;12.80;83.80;;;;;;5034031;28;20483;-64
2023/05/26 07:40:19;;;;;;;24.73;4.93;;;12.70;83.00;;;;;;5033847;28;20445;-65
2023/05/26 07:42:46;;;;;;;13.73;3.47;;;12.80;83.10;;;;;;5034192;28;20761;-64
2023/05/26 07:45:13;;;;;;;17.40;4.97;;;12.90;82.90;;;;;;5033298;28;20475;-61
2023/05/26 07:47:40;;;;;;;13.87;4.20;;;13.00;81.50;;;;;;5035499;28;20456;-66
2023/05/26 07:50:08;;;;;;;13.67;4.83;;;13.10;80.60;;;;;;5035346;28;20449;-63
2023/05/26 07:52:34;;;;;;;16.80;4.20;;;13.20;80.00;;;;;;5035203;28;20485;-62
2023/05/26 07:55:03;;;;;;;12.90;4.50;;;13.40;78.80;;;;;;5033861;28;20460;-67
2023/05/26 07:57:29;;;;;;;13.27;4.30;;;13.40;76.80;;;;;;5034574;28;20805;-61
2023/05/26 07:59:56;;;;;;;16.30;4.13;;;13.40;76.30;;;;;;5036472;28;20444;-62
2023/05/26 08:02:23;;;;;;;16.20;4.30;;;13.50;75.40;;;;;;5034713;28;20924;-61
2023/05/26 08:04:50;;;;;;;19.23;4.87;;;13.50;74.40;;;;;;5034190;28;20472;-59
2023/05/26 08:07:17;;;;;;;22.40;4.80;;;13.50;73.40;;;;;;5033368;28;20472;-61
2023/05/26 08:09:44;;;;;;;10.63;3.73;;;13.50;73.50;;;;;;5033450;28;20441;-62
2023/05/26 08:12:12;;;;;;;12.27;4.10;;;13.60;73.70;;;;;;5032825;28;20481;-61
2023/05/26 08:14:39;;;;;;;18.47;4.50;;;13.70;73.20;;;;;;5033739;28;20480;-60
2023/05/26 08:17:05;;;;;;;13.10;4.80;;;13.80;72.30;;;;;;5033329;28;20483;-59
2023/05/26 08:19:32;;;;;;;15.20;4.60;;;13.90;71.50;;;;;;5032818;28;20555;-61
2023/05/26 08:21:59;;;;;;;15.13;4.53;;;14.00;70.60;;;;;;5033372;28;20451;-64
2023/05/26 08:24:26;;;;;;;11.80;3.90;;;14.10;70.10;;;;;;5032515;28;20469;-59
2023/05/26 08:26:53;;;;;;;14.00;5.67;;;14.20;69.30;;;;;;5032355;28;20456;-63
2023/05/26 08:29:22;;;;;;;16.90;4.90;;;14.20;68.70;;;;;;5032586;28;20947;-60
2023/05/26 08:31:49;;;;;;;11.57;4.50;;;14.30;68.00;;;;;;5032693;28;20472;-62
2023/05/26 08:34:16;;;;;;;14.30;4.30;;;14.30;67.00;;;;;;5033860;28;20504;-62
2023/05/26 08:36:43;;;;;;;17.77;5.70;;;14.30;66.30;;;;;;5033707;28;20438;-61
2023/05/26 08:39:10;;;;;;;15.53;4.63;;;14.30;66.10;;;;;;5032643;28;20441;-61
2023/05/26 08:41:44;;;;;;;13.63;4.37;;;14.40;66.20;;;;;;5032843;28;20441;-60
2023/05/26 08:44:14;;;;;;;21.40;4.80;;;14.50;65.70;;;;;;5033191;28;20469;-58
2023/05/26 08:46:45;;;;;;;17.87;5.63;;;14.50;65.00;;;;;;5032429;28;20429;-59
2023/05/26 08:49:15;;;;;;;13.60;3.93;;;14.50;64.80;;;;;;5032661;28;20445;-59
2023/05/26 08:51:46;;;;;;;13.83;4.70;;;14.50;64.80;;;;;;5032360;28;20488;-61
2023/05/26 08:54:13;;;;;;;15.30;4.60;;;14.50;64.90;;;;;;5032424;28;20907;-62
2023/05/26 08:56:41;;;;;;;12.53;4.60;;;14.60;64.90;;;;;;5033087;28;20456;-61
2023/05/26 08:59:08;;;;;;;20.13;5.17;;;14.70;64.70;;;;;;5036152;28;20444;-62
2023/05/26 09:01:35;;;;;;;14.00;4.23;;;14.90;64.30;;;;;;5036124;28;20441;-61
2023/05/26 09:04:03;;;;;;;18.50;4.63;;;15.00;64.10;;;;;;5035858;28;20930;-59
2023/05/26 09:06:31;;;;;;;13.37;4.20;;;15.10;63.80;;;;;;5035895;28;20976;-60
2023/05/26 09:08:58;;;;;;;16.87;4.13;;;15.20;63.40;;;;;;5036187;28;20449;-59
2023/05/26 09:11:27;;;;;;;12.17;3.67;;;15.30;63.20;;;;;;5035911;28;21017;-60
2023/05/26 09:13:55;;;;;;;16.53;5.00;;;15.40;62.60;;;;;;5036965;28;20483;-60
2023/05/26 09:16:23;;;;;;;15.10;4.57;;;15.50;61.80;;;;;;5036207;28;20457;-61
2023/05/26 09:18:50;;;;;;;13.23;4.47;;;15.50;60.40;;;;;;5036037;28;20452;-60
2023/05/26 09:21:20;;;;;;;11.40;3.50;;;15.50;60.50;;;;;;5035697;28;20919;-60
2023/05/26 09:23:54;;;;;;;13.20;5.57;;;15.50;60.00;;;;;;5036052;28;20464;-60
2023/05/26 09:26:27;;;;;;;12.10;3.97;;;15.60;60.00;;;;;;5036074;28;20919;-59
2023/05/26 09:28:54;;;;;;;10.43;3.83;;;15.70;59.50;;;;;;5035783;28;20430;-61
2023/05/26 09:31:21;;;;;;;12.20;3.47;;;15.70;58.50;;;;;;5035239;28;21021;-59
2023/05/26 09:33:48;;;;;;;14.83;4.17;;;15.70;58.10;;;;;;5035359;28;20445;-60
2023/05/26 09:36:16;;;;;;;11.43;4.20;;;15.80;57.60;;;;;;5035568;28;20846;-59
2023/05/26 09:38:45;;;;;;;23.53;4.20;;;15.80;57.00;;;;;;5035636;28;20441;-60
2023/05/26 09:41:13;;;;;;;11.30;4.93;;;15.90;55.90;;;;;;5035590;28;21034;-60
2023/05/26 09:43:40;;;;;;;11.97;4.27;;;15.80;55.30;;;;;;5035586;28;20449;-59
2023/05/26 09:46:08;;;;;;;8.13;2.97;;;15.80;55.00;;;;;;5036106;28;20473;-60
2023/05/26 09:48:36;;;;;;;9.87;3.47;;;15.80;54.50;;;;;;5035496;28;20969;-61
2023/05/26 09:51:03;;;;;;;12.23;3.60;;;15.80;54.30;;;;;;5035976;28;20533;-60
2023/05/26 09:53:30;;;;;;;16.80;4.17;;;15.70;53.10;;;;;;5035552;28;20491;-61
2023/05/26 09:56:02;;;;;;;7.87;2.70;;;15.80;52.40;;;;;;5035794;28;20461;-60
2023/05/26 09:58:31;;;;;;;13.03;3.50;;;15.80;51.90;;;;;;5035894;28;20428;-60
2023/05/26 10:01:00;;;;;;;10.47;3.23;;;15.80;51.10;;;;;;5035365;28;20452;-60
2023/05/26 10:03:28;;;;;;;10.20;4.33;;;15.90;51.20;;;;;;5035526;28;20815;-61
2023/05/26 10:05:56;;;;;;;9.07;4.00;;;15.90;51.20;;;;;;5035463;28;20801;-61
2023/05/26 10:08:24;;;;;;;17.20;4.60;;;16.00;51.10;;;;;;5034970;28;20441;-61
2023/05/26 10:10:52;;;;;;;15.23;3.37;;;16.10;50.90;;;;;;5034648;28;20947;-58
2023/05/26 10:13:20;;;;;;;13.80;4.23;;;16.20;50.70;;;;;;5035532;28;20476;-60
2023/05/26 10:15:48;;;;;;;10.63;3.97;;;16.20;49.90;;;;;;5034769;28;20465;-60
2023/05/26 10:18:15;;;;;;;12.70;3.13;;;16.30;49.60;;;;;;5035020;28;20449;-61
2023/05/26 10:20:46;;;;;;;8.90;3.90;;;16.40;49.60;;;;;;5034941;28;20445;-61
2023/05/26 10:23:18;;;;;;;10.63;3.90;;;16.70;49.10;;;;;;5034401;28;20919;-62
2023/05/26 10:25:51;;;;;;;13.10;4.07;;;16.80;48.60;;;;;;5034555;28;20465;-61
2023/05/26 10:28:26;;;;;;;8.70;2.90;;;16.80;48.10;;;;;;5034745;28;20487;-59
2023/05/26 10:31:00;;;;;;;9.10;3.90;;;16.70;47.80;;;;;;5034078;28;20487;-60
2023/05/26 10:33:39;;;;;;;10.07;3.20;;;16.60;48.10;;;;;;5034564;28;20471;-60
2023/05/26 10:36:08;;;;;;;12.33;3.43;;;16.50;48.20;;;;;;5034368;28;20480;-59
2023/05/26 10:38:37;;;;;;;6.20;2.80;;;16.60;48.10;;;;;;5034518;28;20449;-59
2023/05/26 10:41:10;;;;;;;8.83;3.30;;;16.60;47.60;;;;;;5035317;28;20451;-61
2023/05/26 10:43:38;;;;;;;9.90;2.87;;;16.80;47.50;;;;;;5035007;28;20452;-60
2023/05/26 10:46:07;;;;;;;11.17;3.67;;;17.00;47.10;;;;;;5034223;28;20556;-61
2023/05/26 10:48:38;;;;;;;13.23;3.40;;;17.00;46.60;;;;;;5034687;28;20974;-60
2023/05/26 10:51:14;;;;;;;6.97;2.97;;;17.00;47.00;;;;;;5034969;28;20449;-58
2023/05/26 10:53:43;;;;;;;11.47;3.80;;;17.00;47.00;;;;;;5034294;28;20468;-60
2023/05/26 10:56:12;;;;;;;14.10;3.57;;;17.10;46.60;;;;;;5034415;28;20861;-60
2023/05/26 10:58:45;;;;;;;9.17;3.37;;;17.20;46.60;;;;;;5034124;28;20449;-59
2023/05/26 11:01:16;;;;;;;11.17;3.30;;;17.30;46.10;;;;;;5035128;28;20838;-61
2023/05/26 11:03:45;;;;;;;6.67;3.43;;;17.30;45.60;;;;;;5034748;28;20429;-60
2023/05/26 11:06:13;;;;;;;8.90;3.77;;;17.30;45.50;;;;;;5035356;28;20480;-60
2023/05/26 11:08:42;;;;;;;8.30;2.50;;;17.40;45.40;;;;;;5034206;28;20842;-60
2023/05/26 11:11:11;;;;;;;7.30;3.10;;;17.50;44.50;;;;;;5033861;28;20480;-60
2023/05/26 11:13:44;;;;;;;7.40;2.63;;;17.40;44.20;;;;;;5034100;28;20484;-60
2023/05/26 11:16:23;;;;;;;8.30;3.00;;;17.50;44.30;;;;;;5033586;28;20471;-61
2023/05/26 11:18:52;;;;;;;5.63;2.30;;;17.50;44.50;;;;;;5033550;28;20433;-59
2023/05/26 11:21:23;;;;;;;8.03;3.20;;;17.50;44.50;;;;;;5033485;28;20463;-60
2023/05/26 11:23:52;;;;;;;8.30;4.20;;;17.50;44.00;;;;;;5034580;28;20532;-61
2023/05/26 11:26:19;;;;;;;7.70;3.30;;;17.40;44.10;;;;;;5033668;28;21005;-60
2023/05/26 11:28:47;;;;;;;8.60;3.10;;;17.40;43.90;;;;;;5033450;28;20455;-59
2023/05/26 11:31:15;;;;;;;8.40;3.40;;;17.30;43.40;;;;;;5033014;28;20445;-60
2023/05/26 11:33:44;;;;;;;7.37;2.60;;;17.30;43.50;;;;;;5033332;28;20492;-61
2023/05/26 11:36:12;;;;;;;11.60;2.80;;;17.30;44.10;;;;;;5033357;28;20506;-59
2023/05/26 11:38:40;;;;;;;7.53;3.60;;;17.50;44.50;;;;;;5033017;28;20958;-60
2023/05/26 11:41:08;;;;;;;10.40;3.80;;;17.60;44.60;;;;;;5032992;28;20495;-59
2023/05/26 11:43:36;;;;;;;9.57;3.77;;;17.80;44.60;;;;;;5032500;28;20452;-59
2023/05/26 11:46:05;;;;;;;10.53;3.27;;;18.10;44.30;;;;;;5032773;28;20838;-60
2023/05/26 11:48:35;;;;;;;9.80;3.80;;;18.40;43.80;;;;;;5033063;28;20452;-60
2023/05/26 11:51:13;;;;;;;9.93;3.80;;;18.60;43.10;;;;;;5033115;28;20445;-62
2023/05/26 11:53:41;;;;;;;12.17;4.07;;;18.80;42.90;;;;;;5032935;28;20465;-60
2023/05/26 11:56:09;;;;;;;6.73;2.40;;;19.20;42.90;;;;;;5033205;28;20483;-61
2023/05/26 11:58:37;;;;;;;11.77;3.83;;;19.60;42.00;;;;;;5033315;28;20449;-60
2023/05/26 12:01:07;;;;;;;5.73;3.03;;;19.80;41.30;;;;;;5033889;28;20445;-62
2023/05/26 12:03:36;;;;;;;6.20;2.90;;;20.10;40.90;;;;;;5033318;28;20446;-61
2023/05/26 12:06:25;;;;;;;8.40;3.40;;;20.50;40.30;;;;;;5033374;28;20469;-60
2023/05/26 12:08:53;;;;;;;10.83;3.30;;;20.80;40.40;;;;;;5028884;28;20449;-62
2023/05/26 12:11:22;;;;;;;7.20;3.07;;;21.00;39.50;;;;;;5032930;28;20437;-61
2023/05/26 12:13:55;;;;;;;10.20;3.87;;;21.30;38.50;;;;;;5033908;28;20848;-61
2023/05/26 12:16:29;;;;;;;6.90;3.20;;;21.20;38.10;;;;;;5033608;28;20425;-61
2023/05/26 12:18:57;;;;;;;8.23;3.00;;;21.40;38.50;;;;;;5033802;28;20436;-62
2023/05/26 12:21:25;;;;;;;10.13;3.37;;;21.50;37.80;;;;;;5033679;28;20449;-61
2023/05/26 12:23:54;;;;;;;10.27;3.57;;;21.50;37.70;;;;;;5032883;28;20457;-60
2023/05/26 12:26:25;;;;;;;7.70;4.00;;;21.60;37.70;;;;;;5033342;28;20445;-61
2023/05/26 12:29:12;;;;;;;11.13;3.50;;;21.70;36.90;;;;;;5033104;28;20429;-61
2023/05/26 12:31:45;;;;;;;10.23;3.57;;;21.50;36.00;;;;;;5033778;28;20526;-61
2023/05/26 12:34:14;;;;;;;10.73;2.90;;;21.30;36.30;;;;;;5036341;28;20507;-61
2023/05/26 12:36:41;;;;;;;8.00;3.00;;;20.80;36.80;;;;;;5036605;28;20461;-62
2023/05/26 12:39:08;;;;;;;7.13;2.90;;;20.40;37.60;;;;;;5036543;28;20440;-61
2023/05/26 12:41:36;;;;;;;8.93;3.73;;;20.10;38.10;;;;;;5036461;28;20798;-60
2023/05/26 12:44:03;;;;;;;7.87;2.40;;;19.80;38.70;;;;;;5036650;28;20448;-62
2023/05/26 12:46:31;;;;;;;11.93;3.77;;;19.60;38.20;;;;;;5036740;28;20452;-61
2023/05/26 12:48:59;;;;;;;10.80;3.30;;;19.50;39.20;;;;;;5036200;28;20433;-62